Time;durP1;ratioP1;P1;durP2;ratioP2;P2;SDS_P1;SDS_P2;PMS_P1;PMS_P2;Temp;Humidity;BMP_temperature;BMP_pressure;BME280_temperature;BME280_humidity;BME280_pressure;Samples;Min_cycle;Max_cycle;Signal;HPM_P1;HPM_P2
2022/12/24 00:01:03;;;;;;;3.90;2.80;;;29.60;48.50;;;;;;5051741;28;20215;-68
2022/12/24 00:03:31;;;;;;;6.13;2.90;;;29.70;48.00;;;;;;5054035;28;20591;-69
2022/12/24 00:06:03;;;;;;;8.03;3.37;;;29.80;48.20;;;;;;5054666;28;20213;-69
2022/12/24 00:08:30;;;;;;;3.87;2.70;;;30.20;47.20;;;;;;5054242;28;20310;-69
2022/12/24 00:10:57;;;;;;;4.40;2.93;;;30.50;47.20;;;;;;5054072;28;20188;-69
2022/12/24 00:13:25;;;;;;;3.77;2.67;;;30.40;45.50;;;;;;5053461;28;20550;-68
2022/12/24 00:15:52;;;;;;;5.53;2.90;;;30.60;45.20;;;;;;5051666;28;20654;-69
2022/12/24 00:18:19;;;;;;;6.27;3.60;;;30.80;45.40;;;;;;5053240;28;20179;-68
2022/12/24 00:20:50;;;;;;;6.23;3.10;;;30.80;46.20;;;;;;5054126;28;20298;-68
2022/12/24 00:23:18;;;;;;;3.73;2.80;;;30.30;48.30;;;;;;5052027;28;20172;-66
2022/12/24 00:25:46;;;;;;;4.90;2.87;;;30.40;48.50;;;;;;5053107;28;20199;-66
2022/12/24 00:28:14;;;;;;;9.07;3.00;;;30.20;48.10;;;;;;5052818;28;20176;-67
2022/12/24 00:30:42;;;;;;;5.33;2.77;;;30.10;48.70;;;;;;5065924;28;20222;-66
2022/12/24 00:33:10;;;;;;;7.33;2.83;;;29.80;49.30;;;;;;5053201;28;20509;-66
2022/12/24 00:35:39;;;;;;;5.83;2.87;;;29.80;48.50;;;;;;5051196;28;20186;-67
2022/12/24 00:38:08;;;;;;;4.60;2.50;;;29.70;48.80;;;;;;5042885;28;20231;-67
2022/12/24 00:40:35;;;;;;;8.50;2.97;;;29.70;48.60;;;;;;5056898;28;20219;-69
2022/12/24 00:43:03;;;;;;;6.00;3.10;;;29.10;51.50;;;;;;5051328;28;20184;-68
2022/12/24 00:45:30;;;;;;;8.10;2.90;;;29.30;52.20;;;;;;5052591;28;20272;-68
2022/12/24 00:47:58;;;;;;;8.70;3.47;;;30.10;51.30;;;;;;5052711;28;20172;-66
2022/12/24 00:50:25;;;;;;;4.97;2.93;;;30.10;52.00;;;;;;5053132;28;20246;-66
2022/12/24 00:52:52;;;;;;;5.77;3.03;;;30.20;52.30;;;;;;5053882;28;20172;-68
2022/12/24 00:55:20;;;;;;;6.87;3.20;;;30.00;51.80;;;;;;5053539;28;20509;-70
2022/12/24 00:57:47;;;;;;;9.37;2.60;;;29.50;53.20;;;;;;5052574;28;20176;-69
2022/12/24 01:00:16;;;;;;;4.17;2.77;;;29.60;52.90;;;;;;5051406;28;20329;-68
2022/12/24 01:02:44;;;;;;;3.17;2.60;;;29.80;53.50;;;;;;5050843;28;20168;-71
2022/12/24 01:05:11;;;;;;;5.43;2.57;;;29.80;52.70;;;;;;5053097;28;20183;-70
2022/12/24 01:07:44;;;;;;;6.33;2.90;;;29.60;52.80;;;;;;5053049;28;20191;-68
2022/12/24 01:10:14;;;;;;;6.37;3.23;;;29.60;53.10;;;;;;5053432;28;20188;-71
2022/12/24 01:12:41;;;;;;;5.63;2.90;;;29.30;53.90;;;;;;5053446;28;20220;-71
2022/12/24 01:15:10;;;;;;;4.23;2.57;;;29.30;53.50;;;;;;5061121;28;20634;-66
2022/12/24 01:17:37;;;;;;;6.50;2.93;;;29.20;54.00;;;;;;5057851;28;20182;-74
2022/12/24 01:20:07;;;;;;;13.37;9.17;;;29.30;53.80;;;;;;5056813;28;20564;-69
2022/12/24 01:22:35;;;;;;;5.83;3.43;;;29.40;53.10;;;;;;5053029;28;20195;-72
2022/12/24 01:25:02;;;;;;;9.40;3.57;;;29.50;53.20;;;;;;5053054;28;20174;-72
2022/12/24 01:27:29;;;;;;;7.67;2.73;;;29.80;52.30;;;;;;5048210;28;20183;-69
2022/12/24 01:29:57;;;;;;;6.70;2.77;;;29.50;52.80;;;;;;5051869;28;20186;-74
2022/12/24 01:32:24;;;;;;;4.47;2.87;;;29.60;52.10;;;;;;5052807;28;20627;-66
2022/12/24 01:34:51;;;;;;;5.87;3.10;;;29.40;52.60;;;;;;5068168;28;20202;-67
2022/12/24 01:37:19;;;;;;;5.43;3.17;;;29.90;52.00;;;;;;5057254;28;20184;-66
2022/12/24 01:39:46;;;;;;;4.93;2.87;;;30.00;51.10;;;;;;5047204;28;20216;-71
2022/12/24 01:45:50;;;;;;;5.33;3.17;;;29.50;52.50;;;;;;5043830;28;20733;-71
2022/12/24 01:48:33;;;;;;;5.93;3.40;;;29.70;52.40;;;;;;5049621;28;20603;-68
2022/12/24 01:51:22;;;;;;;6.63;3.17;;;29.80;51.60;;;;;;5052835;28;20194;-67
2022/12/24 01:53:55;;;;;;;5.67;2.97;;;30.10;51.10;;;;;;5051669;28;20187;-68
2022/12/24 01:56:23;;;;;;;4.33;3.10;;;30.00;51.60;;;;;;5063048;28;20213;-67
2022/12/24 01:58:56;;;;;;;7.47;3.10;;;30.00;51.70;;;;;;5051980;28;20184;-68
2022/12/24 02:01:23;;;;;;;3.77;2.70;;;30.30;50.20;;;;;;5052724;28;20230;-66
2022/12/24 02:03:51;;;;;;;6.50;2.77;;;30.40;50.40;;;;;;5052636;28;20579;-69
2022/12/24 02:06:20;;;;;;;4.47;3.03;;;30.30;50.70;;;;;;5049907;28;20330;-66
2022/12/24 02:08:47;;;;;;;5.27;2.70;;;30.30;50.20;;;;;;5051143;28;20263;-67
2022/12/24 02:11:18;;;;;;;6.93;2.70;;;30.20;50.60;;;;;;5052316;28;20183;-69
2022/12/24 02:13:53;;;;;;;4.23;3.00;;;29.60;51.60;;;;;;5052446;28;20951;-66
2022/12/24 02:16:45;;;;;;;5.50;3.00;;;29.90;50.90;;;;;;5052614;28;20669;-68
2022/12/24 02:19:36;;;;;;;6.85;3.13;;;30.00;50.10;;;;;;5052375;28;20183;-71
2022/12/24 02:22:14;;;;;;;5.33;3.23;;;30.00;49.90;;;;;;5032464;28;20177;-68
2022/12/24 02:25:11;;;;;;;5.13;3.03;;;30.10;49.80;;;;;;5040783;28;20686;-71
2022/12/24 02:27:56;;;;;;;6.57;3.07;;;30.00;49.00;;;;;;5052623;28;20175;-72
2022/12/24 02:31:04;;;;;;;5.13;2.90;;;29.90;49.10;;;;;;5052101;28;20179;-72
2022/12/24 02:33:38;;;;;;;5.87;2.60;;;30.00;48.70;;;;;;5041301;28;20184;-70
2022/12/24 02:36:39;;;;;;;3.63;2.60;;;30.10;48.70;;;;;;5046311;28;20522;-72
2022/12/24 02:39:13;;;;;;;4.80;2.77;;;30.20;48.70;;;;;;5032436;28;20168;-74
2022/12/24 02:42:06;;;;;;;6.80;3.03;;;30.10;49.20;;;;;;5053385;28;20198;-72
2022/12/24 02:44:48;;;;;;;2.60;2.40;;;30.20;48.80;;;;;;5055008;28;20551;-68
2022/12/24 02:47:18;;;;;;;4.72;2.53;;;30.30;48.80;;;;;;5054458;28;20560;-70
2022/12/24 02:49:47;;;;;;;8.83;2.90;;;30.50;47.20;;;;;;5056000;28;20215;-71
2022/12/24 02:52:36;;;;;;;4.17;2.70;;;30.30;47.90;;;;;;5042707;28;20172;-70
2022/12/24 02:55:15;;;;;;;6.47;2.47;;;30.40;47.50;;;;;;5054907;28;20555;-73
2022/12/24 02:58:19;;;;;;;4.15;2.67;;;30.60;47.10;;;;;;5055306;28;20186;-66
2022/12/24 03:01:14;;;;;;;3.60;2.60;;;30.80;47.30;;;;;;5055186;28;20211;-67
2022/12/24 03:04:05;;;;;;;4.07;2.40;;;30.80;46.90;;;;;;5054325;28;20187;-68
2022/12/24 03:06:43;;;;;;;3.45;2.22;;;30.30;48.20;;;;;;5051602;28;20180;-67
2022/12/24 03:09:32;;;;;;;8.07;2.60;;;30.40;47.60;;;;;;5052120;28;20184;-72
2022/12/24 03:12:11;;;;;;;5.57;2.58;;;30.60;48.00;;;;;;5036459;28;20246;-72
2022/12/24 03:14:40;;;;;;;2.67;1.98;;;31.10;46.60;;;;;;5047191;28;20192;-69
2022/12/24 03:17:09;;;;;;;3.17;1.90;;;30.90;45.60;;;;;;5051783;28;20283;-68
2022/12/24 03:19:38;;;;;;;3.35;2.13;;;31.00;45.80;;;;;;5041864;28;20654;-73
2022/12/24 03:22:09;;;;;;;3.63;2.20;;;30.70;47.10;;;;;;5042650;28;20188;-71
2022/12/24 03:24:37;;;;;;;5.20;2.78;;;31.40;45.90;;;;;;5048375;28;20188;-70
2022/12/24 03:27:07;;;;;;;3.50;2.55;;;31.00;46.30;;;;;;5055168;28;20187;-67
2022/12/24 03:29:35;;;;;;;5.68;2.35;;;31.30;45.80;;;;;;5052418;28;20183;-70
2022/12/24 03:32:04;;;;;;;2.58;1.83;;;31.40;45.40;;;;;;5047123;28;20192;-71
2022/12/24 03:34:31;;;;;;;3.75;2.22;;;31.30;44.70;;;;;;5063923;28;20681;-71
2022/12/24 03:36:58;;;;;;;2.60;1.98;;;31.00;45.20;;;;;;5060626;28;20191;-72
2022/12/24 03:39:26;;;;;;;2.58;2.15;;;30.90;46.60;;;;;;5054696;28;20168;-73
2022/12/24 03:41:53;;;;;;;2.90;2.15;;;30.90;46.70;;;;;;5054278;28;20180;-73
2022/12/24 03:44:20;;;;;;;3.33;2.00;;;31.50;45.80;;;;;;5055081;28;20581;-69
2022/12/24 03:46:48;;;;;;;2.50;2.10;;;31.40;45.20;;;;;;5057569;28;20180;-68
2022/12/24 03:49:15;;;;;;;3.15;2.10;;;31.30;45.10;;;;;;5054837;28;20238;-72
2022/12/24 03:51:42;;;;;;;3.38;1.90;;;31.50;45.20;;;;;;5054244;28;20176;-71
2022/12/24 03:54:12;;;;;;;7.43;1.85;;;32.10;43.80;;;;;;5053904;28;20200;-72
2022/12/24 03:56:40;;;;;;;5.05;2.28;;;32.10;43.20;;;;;;5055344;28;20180;-73
2022/12/24 03:59:07;;;;;;;3.88;2.03;;;32.50;42.10;;;;;;5052813;28;20207;-72
2022/12/24 04:01:34;;;;;;;3.97;1.70;;;32.60;41.50;;;;;;5050168;28;20634;-67
2022/12/24 04:04:02;;;;;;;3.78;1.95;;;32.80;40.60;;;;;;5055560;28;20692;-74
2022/12/24 04:06:29;;;;;;;3.95;1.88;;;32.60;41.10;;;;;;5054815;28;20544;-70
2022/12/24 04:09:00;;;;;;;2.03;1.52;;;32.60;41.30;;;;;;5054751;28;20503;-72
2022/12/24 04:11:27;;;;;;;3.75;1.90;;;32.30;41.20;;;;;;5054337;28;20176;-69
2022/12/24 04:13:55;;;;;;;1.95;1.67;;;32.50;41.80;;;;;;5071574;28;20269;-67
2022/12/24 04:16:22;;;;;;;5.63;1.98;;;32.40;41.60;;;;;;5054074;28;20263;-68
2022/12/24 04:18:50;;;;;;;2.83;1.50;;;32.50;40.90;;;;;;5054279;28;20645;-69
2022/12/24 04:21:17;;;;;;;3.55;1.55;;;31.90;41.80;;;;;;5085826;28;20211;-68
2022/12/24 04:23:45;;;;;;;3.72;1.52;;;31.80;42.20;;;;;;5066958;28;20179;-70
2022/12/24 04:26:13;;;;;;;3.38;1.40;;;31.60;42.30;;;;;;5069305;28;20183;-75
2022/12/24 04:28:41;;;;;;;3.67;1.42;;;32.30;40.20;;;;;;5063332;28;20180;-66
2022/12/24 04:31:14;;;;;;;3.72;1.75;;;32.30;40.80;;;;;;5054163;28;20180;-73
2022/12/24 04:33:41;;;;;;;3.85;1.80;;;32.90;39.80;;;;;;5054239;28;20180;-72
2022/12/24 04:36:15;;;;;;;3.28;1.38;;;33.10;39.30;;;;;;5045741;28;20195;-73
2022/12/24 04:38:43;;;;;;;3.95;1.45;;;32.60;38.80;;;;;;5050416;28;20179;-71
2022/12/24 04:41:14;;;;;;;2.80;1.30;;;32.90;38.30;;;;;;5073346;28;20216;-67
2022/12/24 04:43:42;;;;;;;2.05;1.73;;;32.90;38.50;;;;;;5054561;28;20187;-67
2022/12/24 04:46:17;;;;;;;3.20;1.42;;;33.00;39.00;;;;;;5053982;28;20642;-67
2022/12/24 04:48:47;;;;;;;2.58;1.55;;;32.70;38.50;;;;;;5058930;28;20179;-67
2022/12/24 04:51:16;;;;;;;2.80;1.45;;;33.10;38.40;;;;;;5062553;28;20654;-69
2022/12/24 04:53:44;;;;;;;5.50;1.65;;;32.70;39.10;;;;;;5047787;28;20198;-69
2022/12/24 04:56:17;;;;;;;3.78;1.50;;;32.60;39.40;;;;;;5033993;28;20203;-67
2022/12/24 04:58:45;;;;;;;2.80;1.60;;;32.40;39.00;;;;;;5033648;28;20183;-67
2022/12/24 05:01:21;;;;;;;3.60;1.67;;;32.40;39.80;;;;;;5049108;28;20223;-66
2022/12/24 05:03:49;;;;;;;3.70;1.38;;;32.30;40.00;;;;;;5053208;28;20183;-68
2022/12/24 05:06:20;;;;;;;3.80;1.30;;;32.20;40.10;;;;;;5053651;28;20195;-67
2022/12/24 05:08:48;;;;;;;3.58;1.80;;;32.20;40.50;;;;;;5052196;28;20542;-69
2022/12/24 05:11:16;;;;;;;2.95;1.10;;;32.40;40.50;;;;;;5042415;28;20184;-68
2022/12/24 05:13:44;;;;;;;2.78;1.50;;;32.20;40.00;;;;;;5052844;28;20666;-70
2022/12/24 05:16:13;;;;;;;4.88;2.00;;;31.80;40.50;;;;;;5049305;28;20545;-66
2022/12/24 05:18:40;;;;;;;1.92;1.23;;;31.80;40.50;;;;;;5052240;28;20671;-67
2022/12/24 05:21:10;;;;;;;1.98;1.30;;;32.40;39.80;;;;;;5045012;28;20223;-66
2022/12/24 05:26:29;;;;;;;3.33;1.23;;;32.40;38.40;;;;;;5033453;28;20592;-67
2022/12/24 05:28:59;;;;;;;3.83;1.70;;;32.80;37.70;;;;;;5051670;28;20175;-67
2022/12/24 05:31:29;;;;;;;5.20;1.33;;;32.60;38.80;;;;;;5049821;28;20176;-71
2022/12/24 05:33:56;;;;;;;2.88;1.25;;;32.00;38.80;;;;;;5052613;28;20183;-69
2022/12/24 05:36:24;;;;;;;4.32;1.50;;;32.10;39.10;;;;;;5052032;28;20208;-71
2022/12/24 05:38:52;;;;;;;2.08;1.02;;;32.00;38.00;;;;;;5046183;28;20201;-68
2022/12/24 05:41:19;;;;;;;4.50;1.58;;;31.80;38.30;;;;;;5050266;28;20207;-69
2022/12/24 05:43:47;;;;;;;2.22;1.40;;;32.10;38.10;;;;;;5047665;28;20226;-67
2022/12/24 05:46:17;;;;;;;3.88;1.60;;;32.00;39.10;;;;;;5048357;28;20179;-70
2022/12/24 05:48:45;;;;;;;3.33;1.23;;;32.30;38.70;;;;;;5058346;28;20238;-68
2022/12/24 05:51:14;;;;;;;4.97;1.50;;;32.40;37.90;;;;;;5048677;28;20180;-69
2022/12/24 05:53:41;;;;;;;1.83;1.20;;;33.00;37.00;;;;;;5052815;28;20184;-72
2022/12/24 05:56:14;;;;;;;3.22;1.23;;;32.70;36.10;;;;;;5052651;28;20172;-72
2022/12/24 05:58:43;;;;;;;1.88;1.00;;;32.40;36.30;;;;;;5052276;28;20183;-72
2022/12/24 06:01:11;;;;;;;2.28;1.00;;;32.60;36.00;;;;;;5052547;28;20207;-71
2022/12/24 06:03:39;;;;;;;1.20;0.90;;;32.90;36.50;;;;;;5052385;28;20245;-72
2022/12/24 06:06:12;;;;;;;1.98;1.00;;;32.20;35.60;;;;;;5053960;28;20187;-68
2022/12/24 06:08:40;;;;;;;1.92;1.20;;;32.80;35.60;;;;;;5057994;28;20180;-70
2022/12/24 06:11:11;;;;;;;2.80;1.20;;;33.40;34.30;;;;;;5047791;28;20239;-70
2022/12/24 06:13:40;;;;;;;1.77;1.00;;;33.20;34.40;;;;;;5048940;28;20199;-71
2022/12/24 06:16:13;;;;;;;5.97;5.28;;;33.60;33.80;;;;;;5051849;28;20219;-71
2022/12/24 06:18:41;;;;;;;2.53;1.58;;;34.00;33.30;;;;;;5051520;28;20179;-74
2022/12/24 06:21:09;;;;;;;2.78;1.17;;;33.70;33.10;;;;;;5040765;28;20226;-73
2022/12/24 06:23:39;;;;;;;3.95;2.42;;;33.60;33.20;;;;;;5052186;28;20802;-72
2022/12/24 06:26:10;;;;;;;5.28;3.65;;;32.90;33.70;;;;;;5050629;28;20199;-72
2022/12/24 06:28:38;;;;;;;6.65;6.05;;;33.20;33.60;;;;;;5044621;28;20179;-73
2022/12/24 06:31:10;;;;;;;3.08;1.67;;;33.70;33.00;;;;;;5051093;28;20184;-71
2022/12/24 06:33:38;;;;;;;4.20;1.88;;;33.90;32.50;;;;;;5051700;28;20257;-79
2022/12/24 06:36:13;;;;;;;3.53;1.30;;;33.30;32.70;;;;;;5050044;28;20185;-73
2022/12/24 06:38:40;;;;;;;3.83;2.55;;;32.90;33.50;;;;;;5064581;28;20178;-74
2022/12/24 06:41:09;;;;;;;5.28;2.28;;;32.80;33.80;;;;;;5032192;28;20745;-72
2022/12/24 06:43:36;;;;;;;1.77;0.95;;;32.40;34.00;;;;;;5037435;28;20627;-70
2022/12/24 06:46:04;;;;;;;3.47;1.42;;;32.70;33.70;;;;;;5052027;28;20236;-74
2022/12/24 06:48:32;;;;;;;1.35;1.00;;;33.70;32.70;;;;;;5053024;28;20214;-69
2022/12/24 06:51:02;;;;;;;4.40;1.20;;;33.40;32.40;;;;;;5042891;28;20187;-76
2022/12/24 06:53:30;;;;;;;2.58;1.00;;;33.20;33.20;;;;;;5052007;28;20753;-71
2022/12/24 06:56:09;;;;;;;4.43;1.25;;;33.30;32.10;;;;;;5058184;28;20198;-76
2022/12/24 06:58:37;;;;;;;1.33;1.10;;;33.30;32.80;;;;;;5049293;28;20179;-70
2022/12/24 07:01:05;;;;;;;3.15;1.00;;;32.80;33.50;;;;;;5050660;28;20223;-72
2022/12/24 07:03:33;;;;;;;2.10;1.02;;;33.10;33.00;;;;;;5049752;28;20211;-71
2022/12/24 07:06:01;;;;;;;2.38;1.15;;;33.40;32.00;;;;;;5049864;28;20651;-74
2022/12/24 07:08:29;;;;;;;3.92;1.10;;;33.30;32.70;;;;;;5050752;28;20191;-73
2022/12/24 07:10:59;;;;;;;3.95;3.08;;;33.80;32.10;;;;;;5045257;28;20337;-71
2022/12/24 07:13:26;;;;;;;5.45;4.10;;;33.50;31.80;;;;;;5046276;28;20594;-73
2022/12/24 07:16:04;;;;;;;8.95;5.25;;;33.00;32.80;;;;;;5068367;28;20184;-75
2022/12/24 07:18:32;;;;;;;5.82;4.00;;;32.90;33.80;;;;;;5050488;28;20184;-72
2022/12/24 07:21:00;;;;;;;3.42;1.48;;;32.60;34.40;;;;;;5045959;28;20211;-74
2022/12/24 07:23:27;;;;;;;6.45;1.63;;;32.10;35.90;;;;;;5051417;28;20191;-76
2022/12/24 07:25:54;;;;;;;6.35;1.30;;;31.30;37.90;;;;;;5040179;28;20187;-78
2022/12/24 07:28:21;;;;;;;2.72;1.45;;;31.10;38.50;;;;;;5045464;28;20601;-75
2022/12/24 07:30:49;;;;;;;2.03;1.55;;;30.80;40.20;;;;;;5055098;28;20188;-74
2022/12/24 07:33:16;;;;;;;3.35;1.45;;;30.80;40.70;;;;;;5050765;28;20187;-74
2022/12/24 07:35:44;;;;;;;3.33;1.50;;;30.80;41.30;;;;;;5054579;28;20196;-74
2022/12/24 07:38:11;;;;;;;3.90;1.60;;;30.60;41.90;;;;;;5054295;28;20198;-72
2022/12/24 07:40:38;;;;;;;6.47;1.65;;;30.00;43.50;;;;;;5054558;28;20690;-75
2022/12/24 07:43:06;;;;;;;4.27;1.70;;;29.90;43.40;;;;;;5064803;28;20699;-75
2022/12/24 07:45:33;;;;;;;5.30;3.77;;;29.50;44.20;;;;;;5058059;28;20234;-72
2022/12/24 07:48:00;;;;;;;7.30;6.00;;;29.30;45.10;;;;;;5044133;28;20176;-75
2022/12/24 07:50:28;;;;;;;8.33;7.00;;;29.00;46.00;;;;;;5037621;28;20252;-76
2022/12/24 07:52:55;;;;;;;8.17;4.37;;;29.10;47.20;;;;;;5057331;28;20662;-76
2022/12/24 07:55:23;;;;;;;8.20;5.70;;;29.00;47.20;;;;;;5052870;28;20192;-73
2022/12/24 07:57:50;;;;;;;4.47;2.57;;;29.00;49.20;;;;;;5043656;28;20190;-75
2022/12/24 08:00:18;;;;;;;7.87;2.67;;;29.00;51.00;;;;;;5048648;28;20200;-75
2022/12/24 08:02:45;;;;;;;4.20;2.40;;;28.60;52.00;;;;;;5057795;28;20218;-76
2022/12/24 08:05:12;;;;;;;8.87;2.63;;;28.50;52.50;;;;;;5054419;28;20180;-75
2022/12/24 08:07:39;;;;;;;9.13;4.67;;;28.50;52.30;;;;;;5040492;28;20219;-73
2022/12/24 08:10:07;;;;;;;8.77;4.73;;;28.30;54.30;;;;;;5040002;28;20536;-72
2022/12/24 08:12:35;;;;;;;10.57;3.23;;;28.30;55.00;;;;;;5043542;28;20266;-75
2022/12/24 08:15:02;;;;;;;9.97;3.40;;;28.10;55.40;;;;;;5039669;28;20184;-74
2022/12/24 08:17:29;;;;;;;7.57;4.47;;;28.00;55.60;;;;;;5060307;28;20187;-73
2022/12/24 08:19:57;;;;;;;6.10;2.77;;;27.80;55.80;;;;;;5049730;28;20204;-69
2022/12/24 08:22:24;;;;;;;6.93;2.70;;;27.70;57.30;;;;;;5054553;28;20179;-74
2022/12/24 08:24:51;;;;;;;5.33;2.40;;;27.70;58.10;;;;;;5054239;28;20626;-72
2022/12/24 08:27:18;;;;;;;5.63;2.53;;;27.40;59.00;;;;;;5052929;28;20186;-73
2022/12/24 08:29:46;;;;;;;7.73;5.43;;;27.50;59.10;;;;;;5034894;28;20239;-73
2022/12/24 08:32:13;;;;;;;6.57;4.60;;;27.30;59.30;;;;;;5045744;28;20198;-73
2022/12/24 08:34:40;;;;;;;12.50;6.60;;;27.20;60.10;;;;;;5037576;28;20315;-71
2022/12/24 08:37:08;;;;;;;7.63;2.27;;;27.10;60.10;;;;;;5038641;28;20278;-72
2022/12/24 08:39:35;;;;;;;6.37;2.37;;;26.90;60.90;;;;;;5036755;28;20535;-75
2022/12/24 08:42:03;;;;;;;7.47;2.50;;;26.80;61.50;;;;;;5054342;28;20195;-75
2022/12/24 08:44:30;;;;;;;4.20;2.20;;;26.80;61.80;;;;;;5053468;28;20176;-74
2022/12/24 08:46:57;;;;;;;7.83;5.37;;;26.90;61.30;;;;;;5053260;28;20187;-75
2022/12/24 08:49:25;;;;;;;8.70;6.77;;;26.80;61.30;;;;;;5045075;28;20250;-75
2022/12/24 08:51:52;;;;;;;5.27;2.53;;;26.60;61.70;;;;;;5048359;28;20233;-74
2022/12/24 08:54:21;;;;;;;5.33;2.63;;;26.50;62.50;;;;;;5053646;28;20192;-74
2022/12/24 08:56:48;;;;;;;12.43;6.97;;;26.50;62.80;;;;;;5038726;28;20185;-75
2022/12/24 08:59:16;;;;;;;8.33;4.90;;;26.50;63.60;;;;;;5051907;28;20225;-76
2022/12/24 09:01:43;;;;;;;7.47;2.93;;;26.50;63.50;;;;;;5042534;28;20212;-74
2022/12/24 09:04:10;;;;;;;8.70;6.77;;;26.50;63.40;;;;;;5056383;28;20182;-74
2022/12/24 09:06:37;;;;;;;7.43;4.90;;;26.30;63.30;;;;;;5053135;28;20621;-75
2022/12/24 09:09:06;;;;;;;4.90;2.37;;;26.10;63.60;;;;;;5053420;28;20176;-76
2022/12/24 09:11:35;;;;;;;3.10;2.10;;;25.90;63.00;;;;;;5051448;28;20271;-74
2022/12/24 09:14:02;;;;;;;4.50;2.60;;;25.80;63.50;;;;;;5045683;28;20532;-75
2022/12/24 09:16:29;;;;;;;5.57;2.47;;;25.60;63.60;;;;;;5058995;28;20191;-67
2022/12/24 09:18:58;;;;;;;4.70;2.43;;;25.60;64.20;;;;;;5053270;28;20270;-73
2022/12/24 09:21:25;;;;;;;5.37;2.37;;;25.50;64.10;;;;;;5047463;28;20574;-77
2022/12/24 09:23:52;;;;;;;6.33;4.87;;;25.30;65.10;;;;;;5052786;28;20184;-78
2022/12/24 09:26:26;;;;;;;9.67;3.93;;;25.30;65.80;;;;;;5053139;28;20179;-77
2022/12/24 09:28:53;;;;;;;2.33;2.13;;;25.20;66.00;;;;;;5051447;28;20179;-75
2022/12/24 09:31:21;;;;;;;4.80;2.03;;;25.10;66.30;;;;;;5053047;28;20191;-74
2022/12/24 09:33:50;;;;;;;5.40;2.13;;;25.00;67.10;;;;;;5051937;28;20184;-75
2022/12/24 09:36:18;;;;;;;4.83;2.37;;;24.90;67.60;;;;;;5052507;28;20237;-74
2022/12/24 09:38:46;;;;;;;6.97;2.30;;;24.90;68.00;;;;;;5053385;28;20633;-67
2022/12/24 09:41:44;;;;;;;7.17;4.40;;;24.90;68.40;;;;;;5052606;28;20214;-68
2022/12/24 09:44:27;;;;;;;7.27;5.43;;;24.90;68.70;;;;;;5042656;28;20172;-68
2022/12/24 09:46:56;;;;;;;5.33;2.17;;;24.90;68.70;;;;;;5052790;28;20639;-69
2022/12/24 09:49:35;;;;;;;4.17;2.13;;;24.80;68.90;;;;;;5052430;28;20327;-68
2022/12/24 09:52:11;;;;;;;3.20;2.20;;;24.70;69.10;;;;;;5052317;28;20187;-67
2022/12/24 09:54:44;;;;;;;5.37;2.67;;;24.70;69.10;;;;;;5052246;28;20187;-67
2022/12/24 09:57:25;;;;;;;5.27;3.87;;;24.70;68.80;;;;;;5035949;28;20184;-67
2022/12/24 09:59:52;;;;;;;7.07;2.77;;;24.70;68.80;;;;;;5033130;28;20224;-67
2022/12/24 10:02:20;;;;;;;10.00;2.67;;;24.70;69.00;;;;;;5049559;28;20190;-67
2022/12/24 10:04:48;;;;;;;8.83;7.60;;;24.70;68.90;;;;;;5052867;28;20210;-67
2022/12/24 10:07:31;;;;;;;7.57;5.53;;;24.70;69.20;;;;;;5042502;28;20197;-67
2022/12/24 10:10:27;;;;;;;5.63;4.10;;;24.70;69.10;;;;;;5034503;28;20177;-68
2022/12/24 10:13:16;;;;;;;5.13;2.83;;;24.60;69.20;;;;;;5051863;28;20216;-68
2022/12/24 10:16:14;;;;;;;5.17;2.60;;;24.60;69.00;;;;;;5036084;28;20623;-67
2022/12/24 10:18:54;;;;;;;4.40;3.07;;;24.60;69.20;;;;;;5049203;28;20184;-67
2022/12/24 10:21:29;;;;;;;4.23;2.20;;;24.70;69.00;;;;;;5052539;28;20199;-67
2022/12/24 10:24:07;;;;;;;6.93;5.57;;;24.60;69.20;;;;;;5039709;28;20176;-68
2022/12/24 10:26:43;;;;;;;14.50;10.07;;;24.60;69.30;;;;;;5040290;28;20172;-67
2022/12/24 10:29:24;;;;;;;9.33;3.77;;;24.60;69.30;;;;;;5052140;28;20176;-67
2022/12/24 10:32:06;;;;;;;4.77;2.67;;;24.50;69.30;;;;;;5051939;28;20179;-67
2022/12/24 10:34:49;;;;;;;6.53;2.30;;;24.50;69.50;;;;;;5049678;28;20172;-68
2022/12/24 10:37:23;;;;;;;6.67;2.83;;;24.60;69.80;;;;;;5051851;28;20189;-68
2022/12/24 10:39:52;;;;;;;4.73;2.47;;;24.60;69.80;;;;;;5044398;28;20215;-67
2022/12/24 10:42:22;;;;;;;9.40;2.60;;;24.60;69.80;;;;;;5047616;28;20213;-68
2022/12/24 10:45:00;;;;;;;4.73;2.70;;;24.70;69.70;;;;;;5048789;28;20192;-69
2022/12/24 10:47:28;;;;;;;3.93;2.37;;;24.60;69.70;;;;;;5051394;28;20235;-73
2022/12/24 10:50:05;;;;;;;6.30;2.50;;;24.60;69.60;;;;;;5051497;28;20253;-70
2022/12/24 10:52:39;;;;;;;5.73;2.50;;;24.60;69.50;;;;;;5051661;28;20192;-70
2022/12/24 10:55:18;;;;;;;3.73;2.70;;;24.50;69.90;;;;;;5050294;28;20232;-75
2022/12/24 10:57:55;;;;;;;6.37;3.00;;;24.40;69.90;;;;;;5042728;28;20289;-75
2022/12/24 11:00:24;;;;;;;4.77;2.43;;;24.40;70.20;;;;;;5052361;28;20203;-71
2022/12/24 11:03:11;;;;;;;8.20;2.83;;;24.30;70.40;;;;;;5047295;28;20185;-70
2022/12/24 11:05:39;;;;;;;5.93;2.40;;;24.30;70.80;;;;;;5055655;28;20184;-71
2022/12/24 11:08:19;;;;;;;6.00;2.90;;;24.30;70.80;;;;;;5055239;28;20179;-74
2022/12/24 11:11:11;;;;;;;3.73;2.73;;;24.30;71.00;;;;;;5055803;28;20187;-75
2022/12/24 11:13:51;;;;;;;8.63;2.60;;;24.20;70.90;;;;;;5051838;28;20214;-73
2022/12/24 11:16:30;;;;;;;5.80;2.63;;;24.20;70.90;;;;;;5055786;28;20642;-75
2022/12/24 11:19:00;;;;;;;4.73;2.87;;;24.10;71.20;;;;;;5055339;28;20176;-70
2022/12/24 11:21:35;;;;;;;6.80;3.13;;;24.10;71.30;;;;;;5059387;28;20208;-72
2022/12/24 11:24:20;;;;;;;4.80;3.13;;;24.10;71.30;;;;;;5046840;28;20175;-67
2022/12/24 11:26:47;;;;;;;8.83;7.73;;;24.00;71.50;;;;;;5051468;28;20214;-67
2022/12/24 11:29:24;;;;;;;8.23;5.83;;;24.00;71.20;;;;;;5055480;28;20634;-67
2022/12/24 11:31:52;;;;;;;9.63;4.63;;;24.00;71.40;;;;;;5055669;28;20271;-67
2022/12/24 11:34:22;;;;;;;6.37;4.00;;;24.00;71.70;;;;;;5054387;28;20184;-67
2022/12/24 11:36:51;;;;;;;5.60;3.40;;;24.00;71.90;;;;;;5055652;28;20211;-67
2022/12/24 11:39:21;;;;;;;8.53;3.63;;;24.00;72.40;;;;;;5054992;28;20176;-74
2022/12/24 11:41:53;;;;;;;6.43;3.63;;;24.00;72.90;;;;;;5055009;28;20216;-71
2022/12/24 11:44:27;;;;;;;11.33;4.10;;;23.90;73.50;;;;;;5055317;28;20183;-69
2022/12/24 11:46:55;;;;;;;5.63;3.17;;;23.90;73.70;;;;;;5055334;28;20206;-71
2022/12/24 11:49:30;;;;;;;6.47;2.93;;;23.80;74.00;;;;;;5054524;28;20234;-73
2022/12/24 11:52:13;;;;;;;13.70;4.30;;;23.80;74.70;;;;;;5042591;28;20262;-72
2022/12/24 11:55:01;;;;;;;9.50;4.27;;;23.80;75.70;;;;;;5086616;28;20218;-68
2022/12/24 11:58:00;;;;;;;12.97;4.33;;;23.80;76.90;;;;;;5063339;28;20291;-73
2022/12/24 12:00:28;;;;;;;11.53;4.67;;;23.50;78.90;;;;;;5045177;28;20670;-75
2022/12/24 12:03:00;;;;;;;10.77;4.67;;;23.50;80.00;;;;;;5054502;28;20680;-72
2022/12/24 12:05:32;;;;;;;11.80;4.73;;;23.40;81.40;;;;;;5053656;28;20180;-66
2022/12/24 12:08:17;;;;;;;13.30;5.40;;;23.20;83.20;;;;;;5054171;28;20180;-73
2022/12/24 12:10:46;;;;;;;9.67;5.60;;;23.00;84.80;;;;;;5054116;28;20669;-68
2022/12/24 12:13:17;;;;;;;12.57;6.33;;;22.90;85.60;;;;;;5053170;28;20207;-77
2022/12/24 12:16:26;;;;;;;16.40;6.53;;;22.80;86.30;;;;;;5053309;28;20668;-72
2022/12/24 12:19:12;;;;;;;11.43;6.83;;;22.80;86.60;;;;;;5053463;28;20184;-67
2022/12/24 12:21:46;;;;;;;10.83;5.67;;;22.80;86.90;;;;;;5055135;28;20203;-67
2022/12/24 12:24:26;;;;;;;13.00;5.60;;;22.70;87.10;;;;;;5055465;28;20184;-67
2022/12/24 12:27:16;;;;;;;11.00;5.97;;;22.70;87.40;;;;;;5050016;28;20717;-75
2022/12/24 12:29:51;;;;;;;9.17;6.10;;;22.70;87.50;;;;;;5053994;28;20180;-81
2022/12/24 12:32:37;;;;;;;8.77;5.57;;;22.70;87.60;;;;;;5053667;28;20179;-75
2022/12/24 12:35:29;;;;;;;9.57;6.57;;;22.60;87.60;;;;;;5054035;28;20570;-71
2022/12/24 12:38:01;;;;;;;15.90;7.33;;;22.50;87.70;;;;;;5060584;28;20202;-73
2022/12/24 12:41:15;;;;;;;17.47;8.27;;;22.50;87.50;;;;;;5042229;28;20207;-77
2022/12/24 12:44:11;;;;;;;23.20;8.40;;;22.50;87.40;;;;;;5052306;28;20550;-67
2022/12/24 12:46:59;;;;;;;26.83;9.27;;;22.30;87.40;;;;;;5053928;28;20172;-79
2022/12/24 12:50:03;;;;;;;21.13;8.80;;;22.30;87.80;;;;;;5054126;28;20226;-77
2022/12/24 12:52:51;;;;;;;24.33;10.07;;;22.30;88.00;;;;;;5049238;28;20267;-65
2022/12/24 12:55:50;;;;;;;24.43;9.70;;;22.30;88.00;;;;;;5054012;28;20172;-78
2022/12/24 12:58:33;;;;;;;24.00;9.37;;;22.20;87.90;;;;;;5053994;28;20172;-67
2022/12/24 13:01:19;;;;;;;22.37;9.50;;;22.30;88.00;;;;;;5055399;28;20281;-77
2022/12/24 13:04:10;;;;;;;25.83;9.90;;;22.20;87.50;;;;;;5045013;28;20280;-77
2022/12/24 13:06:49;;;;;;;20.67;8.87;;;22.10;87.60;;;;;;5059372;28;20179;-73
2022/12/24 13:09:30;;;;;;;26.60;9.40;;;22.10;87.60;;;;;;5048719;28;20624;-77
2022/12/24 13:12:15;;;;;;;26.13;8.87;;;22.00;87.40;;;;;;5054019;28;20180;-66
2022/12/24 13:14:52;;;;;;;22.33;9.70;;;22.00;87.50;;;;;;5053376;28;20180;-75
2022/12/24 13:17:57;;;;;;;25.77;9.30;;;22.00;87.40;;;;;;5053033;28;20650;-75
2022/12/24 13:20:28;;;;;;;20.33;8.83;;;21.90;87.30;;;;;;5041019;28;20257;-77